Historical Data

TheSutherlands

Weather at Humberside Airport

Current Weather from Humberside Airport

The information displayed on this page is from the METAR reports produced by Humberside Airport. Note that there are times when these are not generated.

Weather Report

Coded Weather Report: 2019/04/22 17:50 EGNJ 221750Z 09012KT 7000 NSC 15/08 Q1004

Report issued: 2019/04/22 at 17:50 UTC

Wind: moderate breeze from the east (090 degrees) at 12 knots (14 mph, 22 kph, Force 4)
Visibility: 7000 metres
Weather: Code: NSC
Temperature: 15 C
Dewpoint: 8 C
Humidity: 63%
Pressure: 1004 hPa